Time,TemperatureF,DewpointF,PressureIn,WindDirection,WindDirectionDegrees,WindSpeedMPH,WindSpeedGustMPH,Humidity,HourlyPrecipIn,Conditions,Clouds,dailyrainin,SoftwareType,DateUTC
2013-07-12 00:03:00,79.3,63.0,29.92,SE,129,0.0,-999.0,58,-99.99,,,0.00,weatherlink.com 1.10,2013-07-12 06:03:00,
2013-07-12 00:17:00,79.0,64.0,29.92,SSE,157,0.0,-999.0,60,-99.99,,,0.00,weatherlink.com 1.10,2013-07-12 06:17:00,
2013-07-12 00:32:00,78.7,64.0,29.92,South,182,0.0,-999.0,61,-99.99,,,0.00,weatherlink.com 1.10,2013-07-12 06:32:00,
2013-07-12 00:47:00,78.5,65.0,29.92,West,261,0.0,-999.0,63,-99.99,,,0.00,weatherlink.com 1.10,2013-07-12 06:47:00,
2013-07-12 01:02:00,78.1,65.0,29.92,West,261,0.0,-999.0,64,-99.99,,,0.00,weatherlink.com 1.10,2013-07-12 07:02:00,
2013-07-12 01:17:00,77.7,65.0,29.91,West,260,0.0,-999.0,65,-99.99,,,0.00,weatherlink.com 1.10,2013-07-12 07:17:00,
2013-07-12 01:32:00,77.1,64.0,29.91,West,260,0.0,-999.0,65,-99.99,,,0.00,weatherlink.com 1.10,2013-07-12 07:32:00,
2013-07-12 01:47:00,76.7,64.0,29.91,WSW,255,0.0,-999.0,65,-99.99,,,0.00,weatherlink.com 1.10,2013-07-12 07:47:00,
2013-07-12 02:02:00,76.3,64.0,29.91,WSW,255,0.0,-999.0,65,-99.99,,,0.00,weatherlink.com 1.10,2013-07-12 08:02:00,
2013-07-12 02:17:00,76.0,64.0,29.91,WSW,253,0.0,-999.0,66,-99.99,,,0.00,weatherlink.com 1.10,2013-07-12 08:17:00,
2013-07-12 02:32:00,75.7,64.0,29.91,WSW,253,0.0,-999.0,67,-99.99,,,0.00,weatherlink.com 1.10,2013-07-12 08:32:00,
2013-07-12 02:47:00,75.1,64.0,29.90,WSW,253,0.0,-999.0,68,-99.99,,,0.00,weatherlink.com 1.10,2013-07-12 08:47:00,
2013-07-12 03:02:00,74.5,64.0,29.91,WSW,253,0.0,-999.0,69,-99.99,,,0.00,weatherlink.com 1.10,2013-07-12 09:02:00,
2013-07-12 03:17:00,73.7,64.0,29.91,WSW,253,0.0,-999.0,71,-99.99,,,0.00,weatherlink.com 1.10,2013-07-12 09:17:00,
2013-07-12 03:32:00,72.9,63.0,29.91,WSW,253,0.0,-999.0,72,-99.99,,,0.00,weatherlink.com 1.10,2013-07-12 09:32:00,
2013-07-12 03:47:00,72.2,64.0,29.91,WSW,253,0.0,-999.0,74,-99.99,,,0.00,weatherlink.com 1.10,2013-07-12 09:47:00,
2013-07-12 04:02:00,71.6,63.0,29.91,WSW,253,0.0,-999.0,74,-99.99,,,0.00,weatherlink.com 1.10,2013-07-12 10:02:00,
2013-07-12 04:17:00,70.7,63.0,29.92,WSW,253,0.0,-999.0,76,-99.99,,,0.00,weatherlink.com 1.10,2013-07-12 10:17:00,
2013-07-12 04:32:00,70.3,63.0,29.91,WSW,253,0.0,-999.0,77,-99.99,,,0.00,weatherlink.com 1.10,2013-07-12 10:32:00,
2013-07-12 04:47:00,70.0,63.0,29.91,WSW,253,0.0,-999.0,78,-99.99,,,0.00,weatherlink.com 1.10,2013-07-12 10:47:00,
2013-07-12 05:02:00,69.8,63.0,29.91,WSW,253,0.0,-999.0,78,-99.99,,,0.00,weatherlink.com 1.10,2013-07-12 11:02:00,
2013-07-12 05:17:00,69.2,62.0,29.92,WSW,253,0.0,-999.0,79,-99.99,,,0.00,weatherlink.com 1.10,2013-07-12 11:17:00,
2013-07-12 05:32:00,69.2,63.0,29.92,WSW,253,0.0,-999.0,80,-99.99,,,0.00,weatherlink.com 1.10,2013-07-12 11:32:00,
2013-07-12 05:47:00,68.9,63.0,29.92,WSW,253,0.0,-999.0,81,-99.99,,,0.00,weatherlink.com 1.10,2013-07-12 11:47:00,
2013-07-12 06:02:00,68.9,64.0,29.92,WSW,253,0.0,-999.0,83,-99.99,,,0.00,weatherlink.com 1.10,2013-07-12 12:02:00,
2013-07-12 06:17:00,68.9,63.0,29.92,WSW,253,0.0,-999.0,82,-99.99,,,0.00,weatherlink.com 1.10,2013-07-12 12:17:00,
2013-07-12 06:32:00,69.2,64.0,29.93,WSW,253,0.0,-999.0,83,-99.99,,,0.00,weatherlink.com 1.10,2013-07-12 12:32:00,
2013-07-12 06:47:00,69.7,64.0,29.93,WSW,253,0.0,-999.0,83,-99.99,,,0.00,weatherlink.com 1.10,2013-07-12 12:47:00,
2013-07-12 07:02:00,70.8,66.0,29.93,WSW,253,0.0,-999.0,85,-99.99,,,0.00,weatherlink.com 1.10,2013-07-12 13:02:00,
2013-07-12 07:17:00,71.8,67.0,29.94,WSW,253,0.0,-999.0,84,-99.99,,,0.00,weatherlink.com 1.10,2013-07-12 13:17:00,
2013-07-12 07:32:00,72.6,68.0,29.94,WSW,253,0.0,-999.0,84,-99.99,,,0.00,weatherlink.com 1.10,2013-07-12 13:32:00,
2013-07-12 07:47:00,73.3,68.0,29.94,WSW,253,0.0,-999.0,83,-99.99,,,0.00,weatherlink.com 1.10,2013-07-12 13:47:00,
2013-07-12 08:02:00,74.6,68.0,29.94,WSW,248,0.0,-999.0,81,-99.99,,,0.00,weatherlink.com 1.10,2013-07-12 14:02:00,
2013-07-12 08:17:00,76.0,69.0,29.94,WSW,248,0.0,-999.0,79,-99.99,,,0.00,weatherlink.com 1.10,2013-07-12 14:17:00,
2013-07-12 08:32:00,76.9,69.0,29.94,South,191,1.0,-999.0,77,-99.99,,,0.00,weatherlink.com 1.10,2013-07-12 14:32:00,
2013-07-12 08:47:00,77.9,69.0,29.94,SSW,198,0.0,-999.0,75,-99.99,,,0.00,weatherlink.com 1.10,2013-07-12 14:47:00,
2013-07-12 09:02:00,79.4,70.0,29.94,SW,232,0.0,-999.0,72,-99.99,,,0.00,weatherlink.com 1.10,2013-07-12 15:02:00,
2013-07-12 09:17:00,80.8,70.0,29.94,SW,231,0.0,-999.0,69,-99.99,,,0.00,weatherlink.com 1.10,2013-07-12 15:17:00,
2013-07-12 09:32:00,82.0,68.0,29.94,East,94,3.0,-999.0,63,-99.99,,,0.00,weatherlink.com 1.10,2013-07-12 15:32:00,
2013-07-12 09:47:00,83.3,68.0,29.94,East,95,0.0,-999.0,61,-99.99,,,0.00,weatherlink.com 1.10,2013-07-12 15:47:00,
2013-07-12 10:02:00,84.6,69.0,29.94,East,94,3.0,-999.0,60,-99.99,,,0.00,weatherlink.com 1.10,2013-07-12 16:02:00,
2013-07-12 10:17:00,86.0,68.0,29.94,ESE,109,0.0,-999.0,56,-99.99,,,0.00,weatherlink.com 1.10,2013-07-12 16:17:00,
2013-07-12 10:32:00,86.2,64.0,29.94,SSW,200,3.0,-999.0,47,-99.99,,,0.00,weatherlink.com 1.10,2013-07-12 16:32:00,
2013-07-12 10:47:00,87.5,64.0,29.95,ESE,115,0.0,-999.0,46,-99.99,,,0.00,weatherlink.com 1.10,2013-07-12 16:47:00,
2013-07-12 11:03:00,87.6,62.0,29.94,ESE,113,0.0,-999.0,42,-99.99,,,0.00,weatherlink.com 1.10,2013-07-12 17:03:00,
2013-07-12 11:18:00,88.3,64.0,29.94,ESE,118,1.0,-999.0,44,-99.99,,,0.00,weatherlink.com 1.10,2013-07-12 17:18:00,
2013-07-12 12:03:00,91.8,60.0,29.93,SE,138,0.0,-999.0,34,-99.99,,,0.00,weatherlink.com 1.10,2013-07-12 18:03:00,
2013-07-12 12:18:00,92.8,60.0,29.93,SE,125,0.0,-999.0,33,-99.99,,,0.00,weatherlink.com 1.10,2013-07-12 18:18:00,
2013-07-12 12:33:00,93.7,56.0,29.93,ESE,115,0.0,-999.0,28,-99.99,,,0.00,weatherlink.com 1.10,2013-07-12 18:33:00,
2013-07-12 12:48:00,94.2,57.0,29.92,SE,132,1.0,-999.0,29,-99.99,,,0.00,weatherlink.com 1.10,2013-07-12 18:48:00,
2013-07-12 13:03:00,94.6,58.0,29.92,ESE,120,0.0,-999.0,29,-99.99,,,0.00,weatherlink.com 1.10,2013-07-12 19:03:00,
2013-07-12 13:18:00,95.3,57.0,29.92,SSE,148,3.0,-999.0,28,-99.99,,,0.00,weatherlink.com 1.10,2013-07-12 19:18:00,
2013-07-12 13:33:00,95.8,59.0,29.91,SSE,160,5.0,-999.0,29,-99.99,,,0.00,weatherlink.com 1.10,2013-07-12 19:33:00,
2013-07-12 13:48:00,95.8,61.0,29.91,East,99,4.0,-999.0,31,-99.99,,,0.00,weatherlink.com 1.10,2013-07-12 19:48:00,
2013-07-12 14:03:00,95.5,61.0,29.91,ESE,113,6.0,-999.0,32,-99.99,,,0.00,weatherlink.com 1.10,2013-07-12 20:03:00,
2013-07-12 14:18:00,95.9,62.0,29.90,SSE,155,5.0,-999.0,33,-99.99,,,0.00,weatherlink.com 1.10,2013-07-12 20:18:00,
2013-07-12 14:33:00,95.5,61.0,29.90,ESE,109,7.0,-999.0,32,-99.99,,,0.00,weatherlink.com 1.10,2013-07-12 20:33:00,
2013-07-12 14:48:00,95.8,62.0,29.89,East,94,3.0,-999.0,33,-99.99,,,0.00,weatherlink.com 1.10,2013-07-12 20:48:00,
2013-07-12 15:03:00,95.5,63.0,29.89,ESE,109,0.0,-999.0,34,-99.99,,,0.00,weatherlink.com 1.10,2013-07-12 21:03:00,
2013-07-12 15:18:00,96.1,64.0,29.89,SE,144,0.0,-999.0,34,-99.99,,,0.00,weatherlink.com 1.10,2013-07-12 21:18:00,
2013-07-12 16:02:00,96.5,63.0,29.88,ESE,109,1.0,-999.0,33,-99.99,,,0.00,weatherlink.com 1.10,2013-07-12 22:02:00,
2013-07-12 16:17:00,95.9,62.0,29.88,ESE,113,2.0,-999.0,32,-99.99,,,0.00,weatherlink.com 1.10,2013-07-12 22:17:00,
2013-07-12 16:47:00,95.9,62.0,29.88,ESE,109,6.0,-999.0,32,-99.99,,,0.00,weatherlink.com 1.10,2013-07-12 22:47:00,
2013-07-12 17:02:00,95.8,62.0,29.87,ENE,67,3.0,-999.0,32,-99.99,,,0.00,weatherlink.com 1.10,2013-07-12 23:02:00,
2013-07-12 17:17:00,95.9,62.0,29.87,SSW,198,0.0,-999.0,32,-99.99,,,0.00,weatherlink.com 1.10,2013-07-12 23:17:00,
2013-07-12 17:32:00,94.5,60.0,29.87,ESE,116,0.0,-999.0,32,-99.99,,,0.00,weatherlink.com 1.10,2013-07-12 23:32:00,
2013-07-12 17:47:00,94.7,61.0,29.86,ESE,117,0.0,-999.0,33,-99.99,,,0.00,weatherlink.com 1.10,2013-07-12 23:47:00,
2013-07-12 18:02:00,93.8,61.0,29.86,SSE,154,0.0,-999.0,33,-99.99,,,0.00,weatherlink.com 1.10,2013-07-13 00:02:00,
2013-07-12 18:17:00,93.6,61.0,29.86,SSE,160,0.0,-999.0,34,-99.99,,,0.00,weatherlink.com 1.10,2013-07-13 00:17:00,
2013-07-12 18:32:00,92.9,61.0,29.86,ESE,119,0.0,-999.0,35,-99.99,,,0.00,weatherlink.com 1.10,2013-07-13 00:32:00,
2013-07-12 18:47:00,92.2,62.0,29.87,ESE,120,0.0,-999.0,36,-99.99,,,0.00,weatherlink.com 1.10,2013-07-13 00:47:00,
2013-07-12 19:17:00,90.8,62.0,29.87,SE,132,0.0,-999.0,38,-99.99,,,0.00,weatherlink.com 1.10,2013-07-13 01:17:00,
2013-07-12 19:47:00,89.3,61.0,29.87,ESE,104,0.0,-999.0,39,-99.99,,,0.00,weatherlink.com 1.10,2013-07-13 01:47:00,
2013-07-12 20:02:00,88.2,61.0,29.87,ESE,104,0.0,-999.0,40,-99.99,,,0.00,weatherlink.com 1.10,2013-07-13 02:02:00,
2013-07-12 20:17:00,87.1,61.0,29.87,ESE,104,0.0,-999.0,42,-99.99,,,0.00,weatherlink.com 1.10,2013-07-13 02:17:00,
2013-07-12 20:32:00,85.9,62.0,29.86,ESE,104,0.0,-999.0,44,-99.99,,,0.00,weatherlink.com 1.10,2013-07-13 02:32:00,
2013-07-12 20:47:00,84.6,61.0,29.86,ESE,104,0.0,-999.0,45,-99.99,,,0.00,weatherlink.com 1.10,2013-07-13 02:47:00,
2013-07-12 21:02:00,83.1,61.0,29.87,ESE,104,0.0,-999.0,47,-99.99,,,0.00,weatherlink.com 1.10,2013-07-13 03:02:00,
2013-07-12 21:17:00,81.9,61.0,29.87,ESE,104,0.0,-999.0,50,-99.99,,,0.00,weatherlink.com 1.10,2013-07-13 03:17:00,
2013-07-12 21:32:00,81.0,61.0,29.88,ESE,104,0.0,-999.0,51,-99.99,,,0.00,weatherlink.com 1.10,2013-07-13 03:32:00,
2013-07-12 21:47:00,79.7,60.0,29.89,ESE,104,0.0,-999.0,52,-99.99,,,0.00,weatherlink.com 1.10,2013-07-13 03:47:00,
2013-07-12 22:02:00,79.1,61.0,29.90,ESE,104,0.0,-999.0,54,-99.99,,,0.00,weatherlink.com 1.10,2013-07-13 04:02:00,
2013-07-12 22:17:00,78.7,61.0,29.90,ESE,104,0.0,-999.0,54,-99.99,,,0.00,weatherlink.com 1.10,2013-07-13 04:17:00,
2013-07-12 22:32:00,78.2,61.0,29.90,ESE,104,0.0,-999.0,55,-99.99,,,0.00,weatherlink.com 1.10,2013-07-13 04:32:00,
2013-07-12 22:47:00,77.9,61.0,29.91,ESE,104,0.0,-999.0,56,-99.99,,,0.00,weatherlink.com 1.10,2013-07-13 04:47:00,
2013-07-12 23:04:00,78.4,61.0,29.91,ESE,104,0.0,-999.0,56,-99.99,,,0.00,weatherlink.com 1.10,2013-07-13 05:04:00,
2013-07-12 23:18:00,78.4,62.0,29.91,ESE,104,0.0,-999.0,57,-99.99,,,0.00,weatherlink.com 1.10,2013-07-13 05:18:00,
2013-07-12 23:32:00,78.3,62.0,29.91,ESE,104,0.0,-999.0,58,-99.99,,,0.00,weatherlink.com 1.10,2013-07-13 05:32:00,
2013-07-12 23:47:00,77.8,62.0,29.92,ESE,104,0.0,-999.0,59,-99.99,,,0.00,weatherlink.com 1.10,2013-07-13 05:47:00,